JNB weather

OR Tambo International Airport
Johannesburg, Gauteng, South Africa

Public forecast

Using degrees Celsius for public forecast. Weather courtesy of forecast.io.

METAR (pilot weather report)

Retrieved 2018/12/10 01:00 UTC (14 minutes ago):

FAOR 100100Z 09005KT 070V130 9999 FEW030 13/11 Q1020 NOSIG

TAF (pilot weather forecast)

Forecast is more than 12 hours old.

Retrieved 2018/12/09 00:00 UTC (1 day ago):

TAF FAOR 092207Z 1000/1106 09010KT CAVOK BECMG 1002/1004 BKN010 PROB30 TEMPO 1003/1005 5000 BR BECMG 1005/1007 BKN030 PROB40 TEMPO 1013/1020 4500 TSRA FEW035CB BECMG 1014/1016 15016KT FM101900 09013KT CAVOK PROB30 TEMPO 1100/1105 BKN010 TX23/1012Z TN13/1003Z